createdAt,value
2023-11-17T00:04:38.114Z,73.31
2023-11-17T00:09:41.551Z,73.31
2023-11-17T00:14:44.909Z,73.40
2023-11-17T00:19:48.241Z,73.51
2023-11-17T00:24:51.577Z,73.39
2023-11-17T00:29:54.714Z,73.58
2023-11-17T00:34:57.861Z,73.67
2023-11-17T00:40:01.612Z,73.61
2023-11-17T00:45:07.586Z,73.68
2023-11-17T00:50:12.674Z,73.55
2023-11-17T00:55:17.379Z,73.64
2023-11-17T01:00:20.561Z,73.74
2023-11-17T01:05:23.828Z,73.94
2023-11-17T01:10:28.205Z,74.20
2023-11-17T01:15:35.492Z,74.28
2023-11-17T01:20:42.312Z,74.16
2023-11-17T01:25:46.628Z,74.06
2023-11-17T01:30:49.963Z,74.06
2023-11-17T01:35:53.145Z,73.85
2023-11-17T01:40:58.243Z,73.66
2023-11-17T01:46:02.078Z,73.78
2023-11-17T01:51:06.700Z,73.81
2023-11-17T01:56:10.044Z,73.83
2023-11-17T02:01:15.286Z,74.05
2023-11-17T02:06:39.148Z,73.82
2023-11-17T02:11:51.505Z,73.90
2023-11-17T02:16:55.486Z,74.03
2023-11-17T02:22:04.139Z,74.22
2023-11-17T02:28:01.366Z,74.40
2023-11-17T02:33:09.659Z,74.52
2023-11-17T02:38:14.342Z,74.67
2023-11-17T02:43:17.582Z,74.71
2023-11-17T02:48:29.664Z,74.55
2023-11-17T02:53:37.029Z,74.32
2023-11-17T02:58:40.304Z,74.45
2023-11-17T03:03:45.287Z,74.65
2023-11-17T03:08:50.768Z,74.51
2023-11-17T03:13:54.063Z,74.45
2023-11-17T03:18:57.296Z,74.54
2023-11-17T03:24:00.386Z,74.48
2023-11-17T03:29:06.275Z,74.44
2023-11-17T03:34:11.015Z,74.38
2023-11-17T03:39:15.076Z,74.58
2023-11-17T03:44:18.188Z,74.65
2023-11-17T03:49:22.806Z,74.67
2023-11-17T03:54:26.165Z,74.88
2023-11-17T03:59:31.646Z,74.88
2023-11-17T04:04:35.710Z,74.73
2023-11-17T04:09:39.119Z,74.76
2023-11-17T04:14:43.657Z,74.85
2023-11-17T04:19:48.021Z,74.80
2023-11-17T04:24:51.281Z,74.88
2023-11-17T04:29:54.668Z,74.94
2023-11-17T04:34:57.929Z,75.14
2023-11-17T04:40:03.228Z,75.19
2023-11-17T04:45:10.648Z,75.23
2023-11-17T04:50:14.322Z,75.15
2023-11-17T04:55:17.842Z,75.11
2023-11-17T05:00:21.604Z,74.99
2023-11-17T05:05:25.041Z,74.98
2023-11-17T05:10:28.484Z,75.05
2023-11-17T05:15:33.578Z,75.17
2023-11-17T05:20:38.671Z,75.29
2023-11-17T05:25:41.899Z,75.33
2023-11-17T05:30:45.110Z,75.30
2023-11-17T05:35:49.176Z,75.24
2023-11-17T05:40:53.391Z,75.26
2023-11-17T05:51:10.782Z,75.99
2023-11-17T05:56:14.040Z,75.68
2023-11-17T06:01:17.843Z,75.64
2023-11-17T06:06:21.028Z,75.36
2023-11-17T06:11:26.952Z,75.70
2023-11-17T06:16:30.543Z,75.72
2023-11-17T06:21:33.866Z,75.24
2023-11-17T06:26:37.084Z,74.98
2023-11-17T06:31:44.745Z,74.84
2023-11-17T06:36:48.263Z,75.09
2023-11-17T06:41:53.082Z,75.28
2023-11-17T06:46:57.622Z,75.48
2023-11-17T06:52:03.227Z,75.64
2023-11-17T06:57:08.352Z,75.09
2023-11-17T07:02:11.611Z,75.04
2023-11-17T07:07:15.846Z,75.00
2023-11-17T07:12:19.101Z,75.29
2023-11-17T07:17:22.516Z,75.23
2023-11-17T07:22:26.344Z,75.38
2023-11-17T07:27:29.851Z,75.63
2023-11-17T07:32:33.071Z,75.55
2023-11-17T07:37:36.368Z,75.74
2023-11-17T07:42:41.077Z,75.56
2023-11-17T07:47:44.847Z,75.59
2023-11-17T07:52:48.013Z,75.70
2023-11-17T07:57:51.544Z,75.70
2023-11-17T08:02:57.545Z,75.57
2023-11-17T08:08:02.023Z,75.47
2023-11-17T08:13:05.842Z,75.20
2023-11-17T08:18:10.717Z,75.50
2023-11-17T08:23:14.504Z,75.22
2023-11-17T08:28:18.202Z,74.99
2023-11-17T08:33:21.595Z,74.93
2023-11-17T08:38:26.759Z,74.93
2023-11-17T08:43:30.250Z,74.98
2023-11-17T08:48:37.262Z,74.89
2023-11-17T08:53:40.342Z,75.11
2023-11-17T08:58:43.871Z,74.53
2023-11-17T09:03:48.517Z,74.46
2023-11-17T09:08:52.064Z,74.46
2023-11-17T09:13:55.159Z,75.58
2023-11-17T09:19:00.883Z,73.86
2023-11-17T09:24:04.507Z,73.18
2023-11-17T09:29:08.805Z,72.88
2023-11-17T09:34:12.063Z,72.42
2023-11-17T09:39:17.037Z,71.92
2023-11-17T09:44:20.716Z,71.90
2023-11-17T09:49:29.887Z,71.76
2023-11-17T09:54:34.568Z,72.03
2023-11-17T09:59:44.177Z,72.42
2023-11-17T10:04:47.405Z,80.43
2023-11-17T10:09:51.092Z,75.72
2023-11-17T10:14:55.122Z,72.49
2023-11-17T10:19:59.620Z,69.10
2023-11-17T10:25:03.626Z,65.03
2023-11-17T10:30:09.107Z,65.09
2023-11-17T10:35:18.408Z,66.03
2023-11-17T10:40:33.248Z,66.68
2023-11-17T10:45:48.559Z,67.44
2023-11-17T10:50:53.437Z,68.28
2023-11-17T10:55:59.111Z,68.63
2023-11-17T11:01:04.975Z,68.86
2023-11-17T11:06:09.619Z,69.03
2023-11-17T11:11:22.058Z,69.26
2023-11-17T11:16:26.114Z,69.01
2023-11-17T11:21:35.069Z,69.35
2023-11-17T11:26:39.527Z,69.30
2023-11-17T11:31:42.776Z,69.19
2023-11-17T11:36:49.019Z,69.23
2023-11-17T11:41:52.406Z,69.05
2023-11-17T11:46:59.108Z,69.26
2023-11-17T11:52:14.689Z,69.39
2023-11-17T11:57:30.044Z,69.45
2023-11-17T12:02:35.084Z,69.28
2023-11-17T12:07:39.332Z,69.22
2023-11-17T12:12:45.523Z,69.77
2023-11-17T12:17:54.510Z,69.26
2023-11-17T12:23:06.922Z,69.45
2023-11-17T12:28:11.059Z,68.75
2023-11-17T12:33:15.653Z,68.52
2023-11-17T12:38:18.858Z,68.83
2023-11-17T12:43:22.894Z,69.20
2023-11-17T12:48:26.109Z,69.14
2023-11-17T12:53:50.804Z,69.38
2023-11-17T12:58:55.931Z,69.45
2023-11-17T13:04:01.127Z,69.18
2023-11-17T13:09:11.208Z,69.22
2023-11-17T13:14:25.726Z,69.11
2023-11-17T13:19:30.584Z,69.35
2023-11-17T13:24:34.022Z,68.99
2023-11-17T13:29:41.730Z,68.57
2023-11-17T13:34:55.222Z,68.08
2023-11-17T13:40:00.372Z,68.18
2023-11-17T13:45:05.027Z,68.64
2023-11-17T13:50:16.506Z,68.59
2023-11-17T13:55:21.248Z,68.69
2023-11-17T14:00:27.593Z,68.38
2023-11-17T14:05:31.046Z,68.31
2023-11-17T14:10:34.957Z,68.60
2023-11-17T14:15:47.815Z,68.79
2023-11-17T14:20:56.663Z,68.86
2023-11-17T14:25:59.900Z,68.71
2023-11-17T14:31:09.562Z,67.85
2023-11-17T14:36:12.926Z,67.92
2023-11-17T14:41:17.824Z,68.14
2023-11-17T14:46:25.076Z,68.33
2023-11-17T14:51:31.337Z,68.23
2023-11-17T14:56:35.538Z,68.26
2023-11-17T15:01:44.031Z,68.43
2023-11-17T15:06:55.685Z,68.59
2023-11-17T15:11:59.153Z,68.73
2023-11-17T15:17:02.302Z,68.71
2023-11-17T15:22:06.601Z,68.96
2023-11-17T15:27:09.715Z,69.06
2023-11-17T15:32:12.927Z,69.33
2023-11-17T15:37:16.133Z,69.07
2023-11-17T15:42:19.496Z,68.99
2023-11-17T15:47:22.987Z,68.80
2023-11-17T15:52:26.126Z,68.99
2023-11-17T15:57:29.184Z,68.66
2023-11-17T16:02:33.238Z,68.46
2023-11-17T16:07:36.488Z,68.59
2023-11-17T16:12:40.495Z,68.55
2023-11-17T16:17:43.586Z,68.68
2023-11-17T16:22:47.684Z,68.79
2023-11-17T16:27:52.589Z,68.83
2023-11-17T16:32:56.737Z,68.45
2023-11-17T16:38:00.462Z,68.20
2023-11-17T16:43:12.144Z,68.63
2023-11-17T16:48:15.899Z,68.62
2023-11-17T16:53:20.806Z,68.52
2023-11-17T16:58:24.928Z,68.55
2023-11-17T17:03:28.462Z,68.48
2023-11-17T17:08:32.481Z,68.62
2023-11-17T17:13:37.010Z,68.18
2023-11-17T17:18:41.241Z,68.12
2023-11-17T17:23:44.323Z,68.02
2023-11-17T17:28:47.445Z,67.77
2023-11-17T17:33:50.645Z,67.21
2023-11-17T17:38:53.769Z,67.13
2023-11-17T17:43:57.101Z,67.54
2023-11-17T17:49:01.253Z,67.61
2023-11-17T17:54:06.430Z,67.61
2023-11-17T17:59:09.502Z,67.58
2023-11-17T18:04:13.485Z,67.49
2023-11-17T18:09:16.998Z,67.71
2023-11-17T18:14:20.325Z,67.82
2023-11-17T18:19:23.547Z,67.30
2023-11-17T18:24:26.632Z,67.33
2023-11-17T18:29:29.870Z,67.16
2023-11-17T18:34:33.094Z,66.82
2023-11-17T18:39:38.322Z,67.01
2023-11-17T18:44:41.459Z,67.03
2023-11-17T18:49:46.170Z,66.76
2023-11-17T18:54:50.308Z,66.84
2023-11-17T18:59:53.503Z,67.19
2023-11-17T19:04:56.780Z,67.61
2023-11-17T19:10:00.285Z,67.79
2023-11-17T19:15:07.894Z,67.95
2023-11-17T19:20:16.663Z,68.01
2023-11-17T19:25:19.896Z,68.67
2023-11-17T19:30:23.072Z,68.16
2023-11-17T19:35:26.128Z,67.95
2023-11-17T19:40:29.328Z,68.89
2023-11-17T19:45:32.718Z,68.02
2023-11-17T19:50:36.058Z,68.10
2023-11-17T19:55:39.279Z,68.08
2023-11-17T20:00:44.195Z,68.18
2023-11-17T20:05:47.673Z,68.42
2023-11-17T20:10:51.186Z,69.02
2023-11-17T20:15:55.530Z,68.09
2023-11-17T20:21:00.886Z,67.37
2023-11-17T20:26:08.926Z,67.20
2023-11-17T20:31:14.566Z,66.84
2023-11-17T20:36:21.714Z,67.27
2023-11-17T20:41:25.555Z,67.13
2023-11-17T20:46:29.298Z,67.14
2023-11-17T20:51:33.019Z,67.18
2023-11-17T20:56:36.459Z,67.17
2023-11-17T21:01:47.970Z,67.12
2023-11-17T21:06:52.996Z,67.08
2023-11-17T21:11:56.317Z,67.19
2023-11-17T21:16:59.342Z,66.81
2023-11-17T21:22:02.819Z,66.26
2023-11-17T21:27:08.192Z,66.17
2023-11-17T21:32:12.589Z,66.25
2023-11-17T21:37:15.751Z,65.95
2023-11-17T21:42:19.337Z,65.78
2023-11-17T21:47:22.545Z,65.88
2023-11-17T21:52:25.793Z,65.78
2023-11-17T21:57:28.952Z,65.68
2023-11-17T22:02:32.065Z,65.70
2023-11-17T22:07:35.341Z,65.65
2023-11-17T22:12:42.781Z,65.67
2023-11-17T22:17:46.485Z,65.71
2023-11-17T22:22:51.990Z,65.93
2023-11-17T22:27:56.563Z,65.81
2023-11-17T22:32:59.916Z,65.65
2023-11-17T22:38:03.387Z,65.64
2023-11-17T22:43:06.714Z,65.92
2023-11-17T22:48:09.881Z,65.96
2023-11-17T22:53:13.216Z,65.91
2023-11-17T22:58:16.350Z,66.01
2023-11-17T23:03:19.598Z,65.91
2023-11-17T23:08:22.830Z,65.94
2023-11-17T23:13:26.551Z,66.13
2023-11-17T23:18:30.280Z,66.06
2023-11-17T23:23:33.471Z,66.30
2023-11-17T23:28:36.843Z,66.54
2023-11-17T23:33:40.074Z,66.77
2023-11-17T23:38:43.168Z,67.24
2023-11-17T23:43:47.905Z,67.46
2023-11-17T23:48:51.093Z,67.59
2023-11-17T23:53:56.409Z,67.66
2023-11-17T23:59:02.486Z,67.90
